createdAt,value
2022-08-26T00:00:19.188Z,31.46
2022-08-26T00:02:46.650Z,31.46
2022-08-26T00:05:13.951Z,31.44
2022-08-26T00:07:41.136Z,31.20
2022-08-26T00:10:12.228Z,31.37
2022-08-26T00:12:40.142Z,31.14
2022-08-26T00:15:07.969Z,31.07
2022-08-26T00:17:35.775Z,31.01
2022-08-26T00:20:04.686Z,31.05
2022-08-26T00:22:31.851Z,30.97
2022-08-26T00:24:59.313Z,30.70
2022-08-26T00:27:26.475Z,30.81
2022-08-26T00:29:55.448Z,30.93
2022-08-26T00:32:24.232Z,31.16
2022-08-26T00:34:53.294Z,31.20
2022-08-26T00:37:20.470Z,31.13
2022-08-26T00:39:47.929Z,30.85
2022-08-26T00:42:15.198Z,31.07
2022-08-26T00:44:43.098Z,30.70
2022-08-26T00:47:22.860Z,30.67
2022-08-26T00:49:51.425Z,30.67
2022-08-26T00:52:20.086Z,30.57
2022-08-26T00:54:50.007Z,30.60
2022-08-26T00:57:17.938Z,30.71
2022-08-26T00:59:49.513Z,30.71
2022-08-26T01:02:19.898Z,30.47
2022-08-26T01:04:55.985Z,30.42
2022-08-26T01:07:24.794Z,30.45
2022-08-26T01:09:52.374Z,30.41
2022-08-26T01:12:22.110Z,30.62
2022-08-26T01:14:49.520Z,30.73
2022-08-26T01:17:16.998Z,30.74
2022-08-26T01:19:45.197Z,30.65
2022-08-26T01:22:14.555Z,30.58
2022-08-26T01:24:42.106Z,30.64
2022-08-26T01:27:10.041Z,30.57
2022-08-26T01:29:38.459Z,30.45
2022-08-26T01:32:08.042Z,30.42
2022-08-26T01:34:36.245Z,30.45
2022-08-26T01:37:07.789Z,30.57
2022-08-26T01:39:40.247Z,30.67
2022-08-26T01:42:10.223Z,30.60
2022-08-26T01:44:41.913Z,30.41
2022-08-26T01:47:09.491Z,30.54
2022-08-26T01:49:36.700Z,30.05
2022-08-26T01:52:05.627Z,30.13
2022-08-26T01:54:33.699Z,30.41
2022-08-26T01:57:01.083Z,30.28
2022-08-26T01:59:29.119Z,30.22
2022-08-26T02:01:56.559Z,29.97
2022-08-26T02:04:26.180Z,30.48
2022-08-26T02:06:53.538Z,30.28
2022-08-26T02:09:20.756Z,30.25
2022-08-26T02:11:48.545Z,30.06
2022-08-26T02:14:16.831Z,30.38
2022-08-26T02:16:44.865Z,30.41
2022-08-26T02:19:17.655Z,30.12
2022-08-26T02:21:45.956Z,30.08
2022-08-26T02:24:20.668Z,30.00
2022-08-26T02:26:48.203Z,29.95
2022-08-26T02:29:19.893Z,29.68
2022-08-26T02:31:48.826Z,29.74
2022-08-26T02:34:19.333Z,29.79
2022-08-26T02:36:46.964Z,29.40
2022-08-26T02:39:19.515Z,29.21
2022-08-26T02:41:49.391Z,29.77
2022-08-26T02:44:16.806Z,29.94
2022-08-26T02:46:46.931Z,29.93
2022-08-26T02:49:15.173Z,29.78
2022-08-26T02:51:43.064Z,29.87
2022-08-26T02:54:10.392Z,29.65
2022-08-26T02:56:37.805Z,29.90
2022-08-26T02:59:05.243Z,29.80
2022-08-26T03:01:33.358Z,29.99
2022-08-26T03:04:01.098Z,29.88
2022-08-26T03:06:28.526Z,29.98
2022-08-26T03:08:55.908Z,30.13
2022-08-26T03:11:23.753Z,30.13
2022-08-26T03:13:52.090Z,30.12
2022-08-26T03:16:19.426Z,30.18
2022-08-26T03:18:47.034Z,30.16
2022-08-26T03:21:20.051Z,30.28
2022-08-26T03:23:47.251Z,30.27
2022-08-26T03:26:14.861Z,29.92
2022-08-26T03:29:02.379Z,29.89
2022-08-26T03:31:30.451Z,29.85
2022-08-26T03:33:59.736Z,29.68
2022-08-26T03:36:27.113Z,29.95
2022-08-26T03:38:54.447Z,29.95
2022-08-26T03:41:21.966Z,29.98
2022-08-26T03:43:50.784Z,29.99
2022-08-26T03:46:18.556Z,30.04
2022-08-26T03:48:46.216Z,29.99
2022-08-26T03:51:14.202Z,30.10
2022-08-26T03:53:46.108Z,30.04
2022-08-26T03:56:13.313Z,29.95
2022-08-26T03:58:42.769Z,29.90
2022-08-26T04:01:11.215Z,29.95
2022-08-26T04:03:57.444Z,30.09
2022-08-26T04:06:34.941Z,30.04
2022-08-26T04:09:05.272Z,29.99
2022-08-26T04:11:34.331Z,30.06
2022-08-26T04:14:03.644Z,29.93
2022-08-26T04:16:31.189Z,29.86
2022-08-26T04:18:58.508Z,29.83
2022-08-26T04:21:26.423Z,29.82
2022-08-26T04:23:54.321Z,29.98
2022-08-26T04:26:22.097Z,30.08
2022-08-26T04:28:50.058Z,30.12
2022-08-26T04:31:18.466Z,30.13
2022-08-26T04:33:47.153Z,30.32
2022-08-26T04:36:17.548Z,30.35
2022-08-26T04:38:47.450Z,30.52
2022-08-26T04:41:14.851Z,30.74
2022-08-26T04:43:44.686Z,30.98
2022-08-26T04:46:13.654Z,31.24
2022-08-26T04:48:41.590Z,31.41
2022-08-26T04:51:09.886Z,31.70
2022-08-26T04:53:37.738Z,31.73
2022-08-26T04:56:05.047Z,32.06
2022-08-26T04:58:32.640Z,32.04
2022-08-26T05:00:59.994Z,32.32
2022-08-26T05:03:30.498Z,32.64
2022-08-26T05:05:58.435Z,32.79
2022-08-26T05:08:25.636Z,33.01
2022-08-26T05:11:12.861Z,33.07
2022-08-26T05:13:42.172Z,33.09
2022-08-26T05:16:11.684Z,33.02
2022-08-26T05:18:39.599Z,33.32
2022-08-26T05:21:07.482Z,33.51
2022-08-26T05:23:35.823Z,33.48
2022-08-26T05:26:06.858Z,33.39
2022-08-26T05:28:35.585Z,33.63
2022-08-26T05:31:11.528Z,33.64
2022-08-26T05:33:41.313Z,33.82
2022-08-26T05:36:09.665Z,34.12
2022-08-26T05:38:38.739Z,34.09
2022-08-26T05:41:14.154Z,34.43
2022-08-26T05:43:44.069Z,34.31
2022-08-26T05:46:11.493Z,34.31
2022-08-26T05:48:38.750Z,34.02
2022-08-26T05:51:11.829Z,33.98
2022-08-26T05:53:40.686Z,33.91
2022-08-26T05:56:11.670Z,34.41
2022-08-26T05:58:39.312Z,34.32
2022-08-26T06:01:07.926Z,33.96
2022-08-26T06:03:38.334Z,33.67
2022-08-26T06:06:06.295Z,33.42
2022-08-26T06:08:34.203Z,33.31
2022-08-26T06:11:04.794Z,32.52
2022-08-26T06:13:32.992Z,32.76
2022-08-26T06:16:06.282Z,32.82
2022-08-26T06:18:36.483Z,32.85
2022-08-26T06:21:13.008Z,32.28
2022-08-26T06:23:59.083Z,32.87
2022-08-26T06:26:26.938Z,32.66
2022-08-26T06:28:55.483Z,33.04
2022-08-26T06:31:24.084Z,32.23
2022-08-26T06:33:51.907Z,31.67
2022-08-26T06:36:20.046Z,32.83
2022-08-26T06:38:48.722Z,31.96
2022-08-26T06:41:16.849Z,31.77
2022-08-26T06:43:44.710Z,32.27
2022-08-26T06:46:13.375Z,32.67
2022-08-26T06:48:40.842Z,32.15
2022-08-26T06:51:09.863Z,32.27
2022-08-26T06:53:37.899Z,32.35
2022-08-26T06:56:09.257Z,32.74
2022-08-26T06:58:37.500Z,32.20
2022-08-26T07:01:11.306Z,32.64
2022-08-26T07:03:39.631Z,32.57
2022-08-26T07:06:07.318Z,32.83
2022-08-26T07:08:34.479Z,32.54
2022-08-26T07:11:06.664Z,32.87
2022-08-26T07:13:37.648Z,32.55
2022-08-26T07:16:06.045Z,32.76
2022-08-26T07:18:34.113Z,32.97
2022-08-26T07:21:07.354Z,33.46
2022-08-26T07:23:35.012Z,33.52
2022-08-26T07:26:09.556Z,33.61
2022-08-26T07:28:37.239Z,34.30
2022-08-26T07:31:05.762Z,34.35
2022-08-26T07:33:39.193Z,34.04
2022-08-26T07:36:06.560Z,32.63
2022-08-26T07:38:34.629Z,33.32
2022-08-26T07:41:02.145Z,33.33
2022-08-26T07:43:29.759Z,33.31
2022-08-26T07:45:57.975Z,34.20
2022-08-26T07:48:25.441Z,34.42
2022-08-26T07:50:54.258Z,34.54
2022-08-26T07:53:24.223Z,33.62
2022-08-26T07:55:51.762Z,34.48
2022-08-26T07:58:19.260Z,33.56
2022-08-26T08:00:46.533Z,34.01
2022-08-26T08:03:15.134Z,34.66
2022-08-26T08:05:42.437Z,34.69
2022-08-26T08:08:26.747Z,33.77
2022-08-26T08:10:56.159Z,33.48
2022-08-26T08:13:23.736Z,34.06
2022-08-26T08:15:51.155Z,33.85
2022-08-26T08:18:20.560Z,33.82
2022-08-26T08:20:54.643Z,33.46
2022-08-26T08:23:26.813Z,34.09
2022-08-26T08:26:08.216Z,33.81
2022-08-26T08:28:36.430Z,33.03
2022-08-26T08:31:03.694Z,33.11
2022-08-26T08:33:32.518Z,33.03
2022-08-26T08:36:01.074Z,32.16
2022-08-26T08:38:28.783Z,33.04
2022-08-26T08:40:55.974Z,33.75
2022-08-26T08:43:26.366Z,33.45
2022-08-26T08:45:56.957Z,32.97
2022-08-26T08:48:29.227Z,34.26
2022-08-26T08:51:16.941Z,33.79
2022-08-26T08:53:46.133Z,34.64
2022-08-26T08:56:23.838Z,34.40
2022-08-26T08:59:10.684Z,33.70
2022-08-26T09:01:57.187Z,33.56
2022-08-26T09:04:26.436Z,33.94
2022-08-26T09:06:54.384Z,34.36
2022-08-26T09:09:29.436Z,34.80
2022-08-26T09:11:58.745Z,35.12
2022-08-26T09:14:25.952Z,34.65
2022-08-26T09:16:56.827Z,35.30
2022-08-26T09:19:33.678Z,35.36
2022-08-26T09:22:01.605Z,35.62
2022-08-26T09:24:32.168Z,35.03
2022-08-26T09:27:01.710Z,35.51
2022-08-26T09:29:30.172Z,35.67
2022-08-26T09:32:21.250Z,35.17
2022-08-26T09:34:58.943Z,34.67
2022-08-26T09:40:18.587Z,35.32
2022-08-26T09:42:48.195Z,35.50
2022-08-26T09:45:17.135Z,36.27
2022-08-26T09:47:47.218Z,34.99
2022-08-26T09:50:29.380Z,34.73
2022-08-26T09:53:09.898Z,35.50
2022-08-26T09:55:42.046Z,35.89
2022-08-26T09:58:12.695Z,36.34
2022-08-26T10:00:43.845Z,36.34
2022-08-26T10:03:12.094Z,35.56
2022-08-26T10:05:43.028Z,35.09
2022-08-26T10:08:23.117Z,34.08
2022-08-26T10:10:53.080Z,34.78
2022-08-26T10:13:23.832Z,35.61
2022-08-26T10:15:54.047Z,35.90
2022-08-26T10:18:27.914Z,36.08
2022-08-26T10:21:02.660Z,34.62
2022-08-26T10:23:31.561Z,34.92
2022-08-26T10:26:16.869Z,35.40
2022-08-26T10:28:50.313Z,35.50
2022-08-26T10:31:20.544Z,35.36
2022-08-26T10:33:58.647Z,34.85
2022-08-26T10:37:13.418Z,35.53
2022-08-26T10:39:53.061Z,36.29
2022-08-26T10:42:28.895Z,36.40
2022-08-26T10:44:58.748Z,36.57
2022-08-26T10:47:31.752Z,36.66
2022-08-26T10:50:03.276Z,37.06
2022-08-26T10:52:47.955Z,35.96
2022-08-26T10:55:35.598Z,36.31
2022-08-26T10:58:11.595Z,35.59
2022-08-26T11:01:13.403Z,36.80
2022-08-26T11:04:04.350Z,36.13
2022-08-26T11:06:31.833Z,36.72
2022-08-26T11:09:01.051Z,36.97
2022-08-26T11:11:40.413Z,36.65
2022-08-26T11:14:08.840Z,37.03
2022-08-26T11:16:52.436Z,37.17
2022-08-26T11:20:00.707Z,36.00
2022-08-26T11:22:34.809Z,36.78
2022-08-26T11:25:14.116Z,36.86
2022-08-26T11:27:41.607Z,36.92
2022-08-26T11:30:24.182Z,37.27
2022-08-26T11:32:53.599Z,36.50
2022-08-26T11:35:20.975Z,35.76
2022-08-26T11:37:48.540Z,37.19
2022-08-26T11:40:17.268Z,37.46
2022-08-26T11:42:52.179Z,37.48
2022-08-26T11:45:22.721Z,36.42
2022-08-26T11:47:51.017Z,37.17
2022-08-26T11:50:20.322Z,37.46
2022-08-26T11:52:55.275Z,37.78
2022-08-26T11:55:23.498Z,37.85
2022-08-26T11:57:52.708Z,37.50
2022-08-26T12:00:22.206Z,36.11
2022-08-26T12:02:50.587Z,36.98
2022-08-26T12:05:24.635Z,36.64
2022-08-26T12:07:54.543Z,36.78
2022-08-26T12:10:30.099Z,36.76
2022-08-26T12:12:58.753Z,37.37
2022-08-26T12:15:26.707Z,37.58
2022-08-26T12:17:56.815Z,37.50
2022-08-26T12:20:54.106Z,37.31
2022-08-26T12:23:25.203Z,37.00
2022-08-26T12:26:02.555Z,37.52
2022-08-26T12:28:31.133Z,37.73
2022-08-26T12:31:02.387Z,37.10
2022-08-26T12:33:29.660Z,37.59
2022-08-26T12:35:57.039Z,37.32
2022-08-26T12:38:25.227Z,37.75
2022-08-26T12:40:52.808Z,38.25
2022-08-26T12:43:36.486Z,38.68
2022-08-26T12:46:06.619Z,37.76
2022-08-26T12:48:36.044Z,37.93
2022-08-26T12:51:03.775Z,37.68
2022-08-26T12:53:32.973Z,37.73
2022-08-26T12:56:02.512Z,37.25
2022-08-26T12:58:33.027Z,37.97
2022-08-26T13:01:06.689Z,37.60
2022-08-26T13:03:34.575Z,37.61
2022-08-26T13:06:15.909Z,37.33
2022-08-26T13:08:44.497Z,37.86
2022-08-26T13:11:13.836Z,37.68
2022-08-26T13:13:41.188Z,35.63
2022-08-26T13:16:08.742Z,36.05
2022-08-26T13:18:36.458Z,37.40
2022-08-26T13:21:13.681Z,37.71
2022-08-26T13:23:42.602Z,37.72
2022-08-26T13:26:09.890Z,37.25
2022-08-26T13:28:37.106Z,37.77
2022-08-26T13:31:05.063Z,36.91
2022-08-26T13:33:32.784Z,37.48
2022-08-26T13:36:00.202Z,37.43
2022-08-26T13:38:33.560Z,37.46
2022-08-26T13:41:02.639Z,38.08
2022-08-26T13:43:30.484Z,38.30
2022-08-26T13:45:57.672Z,38.10
2022-08-26T13:48:25.587Z,36.97
2022-08-26T13:50:53.875Z,36.73
2022-08-26T13:53:21.194Z,36.96
2022-08-26T13:55:49.260Z,36.66
2022-08-26T13:58:17.286Z,36.64
2022-08-26T14:00:44.537Z,36.82
2022-08-26T14:03:13.525Z,37.48
2022-08-26T14:05:41.010Z,37.41
2022-08-26T14:08:08.413Z,37.54
2022-08-26T14:10:36.134Z,37.83
2022-08-26T14:13:03.527Z,38.10
2022-08-26T14:15:35.926Z,37.86
2022-08-26T14:18:04.068Z,38.22
2022-08-26T14:20:31.493Z,38.01
2022-08-26T14:23:13.724Z,38.21
2022-08-26T14:25:42.214Z,38.12
2022-08-26T14:28:09.390Z,37.56
2022-08-26T14:30:37.128Z,37.60
2022-08-26T14:33:04.940Z,37.95
2022-08-26T14:35:32.191Z,36.85
2022-08-26T14:37:59.366Z,37.07
2022-08-26T14:40:28.165Z,37.17
2022-08-26T14:42:55.414Z,37.77
2022-08-26T14:45:27.103Z,37.81
2022-08-26T14:47:56.557Z,38.06
2022-08-26T14:50:24.510Z,38.11
2022-08-26T14:53:10.663Z,38.13
2022-08-26T14:55:39.175Z,38.17
2022-08-26T14:58:06.729Z,38.50
2022-08-26T15:00:33.906Z,38.51
2022-08-26T15:03:01.228Z,38.20
2022-08-26T15:05:29.782Z,37.90
2022-08-26T15:07:56.978Z,38.11
2022-08-26T15:10:24.200Z,38.17
2022-08-26T15:12:51.689Z,38.07
2022-08-26T15:15:19.083Z,38.04
2022-08-26T15:17:46.292Z,38.07
2022-08-26T15:20:16.805Z,37.57
2022-08-26T15:22:44.732Z,37.76
2022-08-26T15:25:12.207Z,37.85
2022-08-26T15:27:39.707Z,37.88
2022-08-26T15:30:13.512Z,37.80
2022-08-26T15:32:41.026Z,37.93
2022-08-26T15:35:09.380Z,37.78
2022-08-26T15:37:36.736Z,37.57
2022-08-26T15:40:04.838Z,37.64
2022-08-26T15:42:32.166Z,37.56
2022-08-26T15:44:59.691Z,37.51
2022-08-26T15:47:27.158Z,37.46
2022-08-26T15:49:55.705Z,37.19
2022-08-26T15:52:22.937Z,36.60
2022-08-26T15:54:50.457Z,36.87
2022-08-26T15:57:19.737Z,36.79
2022-08-26T15:59:47.457Z,36.90
2022-08-26T16:02:15.026Z,36.74
2022-08-26T16:04:42.782Z,36.88
2022-08-26T16:07:10.840Z,36.83
2022-08-26T16:09:38.225Z,36.95
2022-08-26T16:12:05.990Z,37.11
2022-08-26T16:14:33.210Z,37.18
2022-08-26T16:17:00.421Z,37.25
2022-08-26T16:19:28.147Z,37.17
2022-08-26T16:21:55.401Z,37.05
2022-08-26T16:24:27.135Z,36.66
2022-08-26T16:26:57.601Z,36.87
2022-08-26T16:29:24.790Z,36.88
2022-08-26T16:31:53.366Z,36.61
2022-08-26T16:34:21.307Z,36.74
2022-08-26T16:36:48.491Z,36.73
2022-08-26T16:39:15.661Z,36.63
2022-08-26T16:41:44.268Z,36.54
2022-08-26T16:44:12.045Z,36.54
2022-08-26T16:46:39.650Z,36.44
2022-08-26T16:49:07.386Z,36.36
2022-08-26T16:51:37.678Z,36.25
2022-08-26T16:54:05.715Z,36.24
2022-08-26T16:56:34.743Z,36.05
2022-08-26T16:59:02.816Z,36.02
2022-08-26T17:01:30.106Z,36.13
2022-08-26T17:03:57.632Z,36.04
2022-08-26T17:06:24.838Z,36.09
2022-08-26T17:08:52.515Z,36.07
2022-08-26T17:11:19.988Z,35.93
2022-08-26T17:13:48.170Z,35.95
2022-08-26T17:16:15.662Z,35.83
2022-08-26T17:18:43.261Z,35.79
2022-08-26T17:21:11.104Z,35.80
2022-08-26T17:23:38.735Z,35.54
2022-08-26T17:26:06.336Z,35.45
2022-08-26T17:28:33.825Z,35.43
2022-08-26T17:31:01.293Z,35.47
2022-08-26T17:33:28.753Z,35.45
2022-08-26T17:35:55.962Z,35.32
2022-08-26T17:38:23.242Z,35.33
2022-08-26T17:40:51.026Z,35.28
2022-08-26T17:43:18.383Z,35.25
2022-08-26T17:45:45.601Z,35.25
2022-08-26T17:48:13.200Z,35.26
2022-08-26T17:50:41.259Z,35.33
2022-08-26T17:53:08.775Z,35.28
2022-08-26T17:58:31.999Z,35.24
2022-08-26T18:01:02.075Z,35.11
2022-08-26T18:03:29.753Z,34.88
2022-08-26T18:05:57.446Z,35.01
2022-08-26T18:08:24.692Z,34.80
2022-08-26T18:10:52.177Z,35.09
2022-08-26T18:13:19.367Z,35.09
2022-08-26T18:15:46.745Z,35.05
2022-08-26T18:18:14.573Z,34.96
2022-08-26T18:20:42.464Z,34.81
2022-08-26T18:23:09.891Z,34.81
2022-08-26T18:25:41.481Z,34.78
2022-08-26T18:28:08.742Z,34.79
2022-08-26T18:30:35.974Z,34.84
2022-08-26T18:33:03.557Z,34.68
2022-08-26T18:35:30.756Z,34.72
2022-08-26T18:37:58.271Z,34.48
2022-08-26T18:40:29.535Z,34.47
2022-08-26T18:42:56.858Z,34.66
2022-08-26T18:45:24.413Z,34.61
2022-08-26T18:47:51.895Z,34.47
2022-08-26T18:50:19.362Z,34.53
2022-08-26T18:52:46.612Z,34.33
2022-08-26T18:55:14.288Z,34.13
2022-08-26T18:57:41.543Z,34.25
2022-08-26T19:00:10.074Z,34.21
2022-08-26T19:02:38.457Z,34.30
2022-08-26T19:05:06.881Z,34.44
2022-08-26T19:07:38.984Z,34.46
2022-08-26T19:10:07.339Z,34.45
2022-08-26T19:12:35.548Z,34.28
2022-08-26T19:15:03.085Z,34.19
2022-08-26T19:17:31.086Z,33.88
2022-08-26T19:19:58.630Z,34.22
2022-08-26T19:22:26.666Z,34.24
2022-08-26T19:24:54.470Z,33.92
2022-08-26T19:27:21.956Z,34.03
2022-08-26T19:29:49.553Z,33.85
2022-08-26T19:32:17.949Z,33.78
2022-08-26T19:34:45.430Z,33.43
2022-08-26T19:37:12.878Z,33.53
2022-08-26T19:39:40.368Z,33.54
2022-08-26T19:42:07.556Z,33.64
2022-08-26T19:44:53.404Z,33.36
2022-08-26T19:47:20.898Z,33.60
2022-08-26T19:49:48.398Z,33.32
2022-08-26T19:52:15.665Z,33.18
2022-08-26T19:54:44.486Z,33.33
2022-08-26T19:57:11.895Z,33.03
2022-08-26T19:59:40.796Z,33.21
2022-08-26T20:02:11.148Z,33.29
2022-08-26T20:04:39.286Z,33.21
2022-08-26T20:07:06.475Z,33.22
2022-08-26T20:09:34.335Z,33.29
2022-08-26T20:12:16.181Z,32.93
2022-08-26T20:14:46.323Z,33.06
2022-08-26T20:17:14.723Z,33.32
2022-08-26T20:20:01.612Z,33.21
2022-08-26T20:22:30.679Z,33.37
2022-08-26T20:24:58.497Z,33.46
2022-08-26T20:27:34.700Z,33.38
2022-08-26T20:30:13.399Z,33.33
2022-08-26T20:32:41.474Z,33.30
2022-08-26T20:35:11.222Z,33.29
2022-08-26T20:37:39.063Z,33.23
2022-08-26T20:40:12.567Z,33.09
2022-08-26T20:42:39.810Z,33.15
2022-08-26T20:45:07.359Z,33.01
2022-08-26T20:47:36.585Z,33.05
2022-08-26T20:50:04.003Z,33.04
2022-08-26T20:52:31.206Z,32.64
2022-08-26T20:54:58.672Z,32.72
2022-08-26T20:57:25.933Z,32.82
2022-08-26T20:59:53.158Z,32.97
2022-08-26T21:02:24.321Z,32.93
2022-08-26T21:04:51.590Z,32.85
2022-08-26T21:07:20.835Z,32.72
2022-08-26T21:09:51.179Z,32.66
2022-08-26T21:12:21.465Z,32.66
2022-08-26T21:14:49.801Z,32.66
2022-08-26T21:17:17.403Z,32.69
2022-08-26T21:19:44.622Z,32.46
2022-08-26T21:22:14.914Z,32.41
2022-08-26T21:24:44.956Z,32.58
2022-08-26T21:27:13.847Z,32.30
2022-08-26T21:29:47.065Z,32.51
2022-08-26T21:32:16.309Z,32.63
2022-08-26T21:34:46.730Z,32.62
2022-08-26T21:37:16.804Z,32.46
2022-08-26T21:39:44.511Z,32.55
2022-08-26T21:42:12.002Z,32.61
2022-08-26T21:44:39.219Z,32.40
2022-08-26T21:47:09.413Z,32.62
2022-08-26T21:49:39.820Z,32.42
2022-08-26T21:52:07.051Z,32.72
2022-08-26T21:54:34.284Z,32.56
2022-08-26T21:57:01.839Z,32.43
2022-08-26T21:59:29.038Z,32.52
2022-08-26T22:01:56.919Z,32.59
2022-08-26T22:04:24.745Z,32.32
2022-08-26T22:06:52.747Z,32.46
2022-08-26T22:09:21.366Z,32.56
2022-08-26T22:11:49.842Z,32.54
2022-08-26T22:14:18.923Z,32.53
2022-08-26T22:16:50.559Z,32.63
2022-08-26T22:19:23.643Z,32.46
2022-08-26T22:21:54.145Z,32.67
2022-08-26T22:24:22.531Z,32.60
2022-08-26T22:26:53.071Z,32.69
2022-08-26T22:29:20.481Z,32.42
2022-08-26T22:31:51.620Z,32.60
2022-08-26T22:34:23.227Z,32.65
2022-08-26T22:36:50.829Z,32.66
2022-08-26T22:39:19.650Z,32.63
2022-08-26T22:41:48.688Z,32.64
2022-08-26T22:44:16.871Z,32.63
2022-08-26T22:46:45.158Z,32.62
2022-08-26T22:49:15.754Z,32.31
2022-08-26T22:51:43.763Z,32.51
2022-08-26T22:54:11.000Z,32.22
2022-08-26T22:56:38.258Z,32.47
2022-08-26T22:59:06.806Z,32.54
2022-08-26T23:01:35.716Z,32.42
2022-08-26T23:04:03.539Z,32.41
2022-08-26T23:06:31.017Z,32.49
2022-08-26T23:08:58.246Z,32.40
2022-08-26T23:11:25.430Z,32.60
2022-08-26T23:13:52.922Z,32.54
2022-08-26T23:16:20.241Z,32.42
2022-08-26T23:18:47.482Z,32.39
2022-08-26T23:21:15.248Z,32.42
2022-08-26T23:23:42.485Z,32.39
2022-08-26T23:26:09.973Z,32.36
2022-08-26T23:28:37.991Z,32.39
2022-08-26T23:31:05.313Z,32.34
2022-08-26T23:33:51.106Z,32.22
2022-08-26T23:36:22.762Z,32.30
2022-08-26T23:38:52.682Z,32.33
2022-08-26T23:41:24.492Z,32.18
2022-08-26T23:43:51.710Z,31.96
2022-08-26T23:46:19.254Z,32.18
2022-08-26T23:48:46.890Z,32.08
2022-08-26T23:51:32.979Z,31.93
2022-08-26T23:54:00.506Z,32.02
2022-08-26T23:56:28.699Z,31.82
2022-08-26T23:58:56.090Z,31.83
